createdAt,value
2022-09-29T00:03:27.879Z,148481.00
2022-09-29T00:08:32.683Z,148424.38
2022-09-29T00:13:36.163Z,148466.84
2022-09-29T00:18:39.560Z,148436.00
2022-09-29T00:23:44.316Z,148376.78
2022-09-29T00:28:52.707Z,148315.03
2022-09-29T00:33:56.697Z,148281.59
2022-09-29T00:39:01.663Z,148284.16
2022-09-29T00:44:07.060Z,148331.78
2022-09-29T00:49:18.556Z,148290.63
2022-09-29T00:54:27.814Z,148254.63
2022-09-29T00:59:36.443Z,148252.03
2022-09-29T01:04:40.907Z,148279.03
2022-09-29T01:09:45.812Z,148286.78
2022-09-29T01:14:49.703Z,148234.06
2022-09-29T01:20:04.502Z,148285.50
2022-09-29T01:25:32.470Z,148293.19
2022-09-29T01:30:54.284Z,148217.31
2022-09-29T01:36:07.663Z,148189.00
2022-09-29T01:41:15.311Z,148195.41
2022-09-29T01:46:24.723Z,148187.72
2022-09-29T01:51:33.194Z,148194.13
2022-09-29T01:56:40.274Z,148197.97
2022-09-29T02:01:49.123Z,148212.16
2022-09-29T02:06:58.977Z,148261.03
2022-09-29T02:12:07.437Z,148267.47
2022-09-29T02:17:19.598Z,148205.69
2022-09-29T02:22:23.443Z,148186.41
2022-09-29T02:27:29.770Z,148223.75
2022-09-29T02:32:36.277Z,148186.41
2022-09-29T02:37:54.972Z,148190.28
2022-09-29T02:43:14.112Z,148245.63
2022-09-29T02:48:37.813Z,148284.16
2022-09-29T02:53:54.096Z,148273.88
2022-09-29T02:59:02.651Z,148254.63
2022-09-29T03:04:25.217Z,148252.03
2022-09-29T03:09:28.603Z,148218.59
2022-09-29T03:14:32.197Z,148226.31
2022-09-29T03:19:37.102Z,148259.75
2022-09-29T03:24:40.463Z,148300.91
2022-09-29T03:29:44.085Z,148209.59
2022-09-29T03:34:48.851Z,148206.97
2022-09-29T03:39:52.155Z,148196.69
2022-09-29T03:44:56.099Z,148273.88
2022-09-29T03:50:00.829Z,148302.19
2022-09-29T03:55:04.579Z,148275.22
2022-09-29T04:00:09.447Z,148290.63
2022-09-29T04:05:14.329Z,148317.66
2022-09-29T04:10:17.995Z,148302.19
2022-09-29T04:15:21.635Z,148330.50
2022-09-29T04:20:27.176Z,148318.94
2022-09-29T04:25:30.504Z,148334.34
2022-09-29T04:30:33.837Z,148316.31
2022-09-29T04:35:38.541Z,148228.88
2022-09-29T04:40:42.133Z,148187.72
2022-09-29T04:45:45.841Z,148200.59
2022-09-29T04:50:52.886Z,148273.88
2022-09-29T04:55:56.305Z,148342.06
2022-09-29T05:01:06.472Z,148333.06
2022-09-29T05:06:12.064Z,148345.91
2022-09-29T05:11:15.715Z,148320.22
2022-09-29T05:16:19.196Z,148315.03
2022-09-29T05:21:28.067Z,148334.34
2022-09-29T05:26:32.456Z,148376.78
2022-09-29T05:31:35.896Z,148371.66
2022-09-29T05:36:40.897Z,148398.66
2022-09-29T05:41:44.387Z,148398.66
2022-09-29T05:46:48.255Z,148433.38
2022-09-29T05:51:53.058Z,148460.44
2022-09-29T05:56:57.227Z,148524.78
2022-09-29T06:02:00.850Z,148447.56
2022-09-29T06:07:05.709Z,148481.00
2022-09-29T06:12:09.787Z,148506.75
2022-09-29T06:17:13.087Z,148551.78
2022-09-29T06:22:18.086Z,148560.78
2022-09-29T06:27:21.763Z,148599.44
2022-09-29T06:32:25.105Z,148643.19
2022-09-29T06:37:36.288Z,148719.19
2022-09-29T06:42:40.064Z,148790.00
2022-09-29T06:47:44.005Z,148854.41
2022-09-29T06:52:59.364Z,148908.53
2022-09-29T06:58:04.667Z,148877.59
2022-09-29T07:03:08.114Z,148918.84
2022-09-29T07:08:12.995Z,148996.16
2022-09-29T07:13:16.508Z,148933.00
2022-09-29T07:18:19.900Z,148903.41
2022-09-29T07:23:25.347Z,148806.78
2022-09-29T07:28:29.494Z,148809.34
2022-09-29T07:33:38.964Z,148869.91
2022-09-29T07:38:47.404Z,148958.81
2022-09-29T07:43:51.214Z,149019.34
2022-09-29T07:48:54.551Z,149117.41
2022-09-29T07:54:02.760Z,149215.41
2022-09-29T07:59:06.187Z,149203.81
2022-09-29T08:04:09.734Z,149194.78
2022-09-29T08:09:15.003Z,149292.81
2022-09-29T08:14:18.396Z,149274.72
2022-09-29T08:19:22.074Z,149290.19
2022-09-29T08:24:28.373Z,149219.28
2022-09-29T08:29:42.998Z,149252.81
2022-09-29T08:34:48.750Z,149362.44
2022-09-29T08:39:53.515Z,149398.63
2022-09-29T08:45:13.462Z,149553.53
2022-09-29T08:50:28.739Z,149587.09
2022-09-29T08:55:40.291Z,149645.19
2022-09-29T09:00:47.054Z,149760.22
2022-09-29T09:06:17.088Z,149703.34
2022-09-29T09:11:36.964Z,149956.63
2022-09-29T09:16:50.585Z,150080.78
2022-09-29T09:22:02.341Z,150162.28
2022-09-29T09:27:13.345Z,149801.56
2022-09-29T09:32:22.077Z,149819.63
2022-09-29T09:37:32.064Z,150171.34
2022-09-29T09:42:39.254Z,150468.97
2022-09-29T09:47:47.974Z,150380.97
2022-09-29T09:52:54.646Z,150588.16
2022-09-29T09:58:39.550Z,150590.72
2022-09-29T10:03:44.336Z,150377.09
2022-09-29T10:08:47.697Z,149935.94
2022-09-29T10:13:59.542Z,149832.59
2022-09-29T10:19:06.868Z,149722.69
2022-09-29T10:24:23.641Z,149817.06
2022-09-29T10:29:32.735Z,149736.91
2022-09-29T10:34:39.935Z,149652.97
2022-09-29T10:39:45.538Z,149522.53
2022-09-29T10:44:52.751Z,149534.16
2022-09-29T10:50:16.066Z,149638.78
2022-09-29T10:55:22.881Z,149776.97
2022-09-29T11:00:29.708Z,149860.97
2022-09-29T11:05:38.873Z,149624.53
2022-09-29T11:10:44.426Z,149652.97
2022-09-29T11:15:47.759Z,149722.69
2022-09-29T11:21:03.028Z,149716.25
2022-09-29T11:26:22.038Z,149839.03
2022-09-29T11:31:37.414Z,149979.88
2022-09-29T11:36:52.236Z,150120.88
2022-09-29T11:42:07.397Z,150065.28
2022-09-29T11:47:23.523Z,150186.84
2022-09-29T11:52:50.732Z,150417.19
2022-09-29T11:58:04.255Z,150418.53
2022-09-29T12:03:23.029Z,150533.72
2022-09-29T12:08:45.668Z,150292.94
2022-09-29T12:13:53.893Z,150269.66
2022-09-29T12:19:01.096Z,150208.81
2022-09-29T12:24:12.444Z,150406.84
2022-09-29T12:29:28.081Z,150466.41
2022-09-29T12:34:40.742Z,150379.69
2022-09-29T12:39:53.714Z,150232.09
2022-09-29T12:45:08.065Z,150096.31
2022-09-29T12:50:19.594Z,149947.56
2022-09-29T12:55:33.002Z,149966.97
2022-09-29T13:00:38.044Z,149773.13
2022-09-29T13:06:16.051Z,149837.72
2022-09-29T13:11:42.791Z,150022.56
2022-09-29T13:17:02.616Z,149848.06
2022-09-29T13:22:33.382Z,149912.69
2022-09-29T13:27:41.508Z,150158.41
2022-09-29T13:32:47.985Z,150356.38
2022-09-29T13:37:54.323Z,150281.28
2022-09-29T13:48:47.825Z,149881.66
2022-09-29T13:54:22.481Z,149864.88
2022-09-29T13:59:28.889Z,149942.44
2022-09-29T14:04:41.686Z,149923.03
2022-09-29T14:09:48.278Z,149995.44
2022-09-29T14:14:58.372Z,150544.06
2022-09-29T14:20:28.729Z,150795.41
2022-09-29T14:25:53.596Z,150523.34
2022-09-29T14:31:02.911Z,150207.53
2022-09-29T14:36:12.543Z,150127.34
2022-09-29T14:41:25.395Z,149965.69
2022-09-29T14:47:09.284Z,149876.53
2022-09-29T14:52:23.400Z,149727.88
2022-09-29T14:57:46.777Z,149674.91
2022-09-29T15:03:00.285Z,149645.19
2022-09-29T15:08:29.035Z,149625.81
2022-09-29T15:13:32.697Z,149514.78
2022-09-29T15:18:56.450Z,149424.41
2022-09-29T15:24:20.430Z,149448.97
2022-09-29T15:29:25.974Z,149450.25
2022-09-29T15:34:30.855Z,149398.63
2022-09-29T15:39:46.408Z,149365.03
2022-09-29T15:44:57.010Z,149331.47
2022-09-29T15:50:05.664Z,149295.38
2022-09-29T15:55:16.148Z,149282.47
2022-09-29T16:00:57.593Z,149273.44
2022-09-29T16:06:18.085Z,149210.22
2022-09-29T16:11:26.119Z,149227.03
2022-09-29T16:16:38.129Z,149175.44
2022-09-29T16:21:44.562Z,149118.69
2022-09-29T16:26:50.793Z,149051.56
2022-09-29T16:31:54.941Z,149003.91
2022-09-29T16:37:02.746Z,148917.56
2022-09-29T16:42:07.196Z,148851.84
2022-09-29T16:47:17.024Z,148829.97
2022-09-29T16:52:26.291Z,148809.34
2022-09-29T16:57:31.715Z,148751.41
2022-09-29T17:02:38.087Z,148726.91
2022-09-29T17:07:45.017Z,148717.91
2022-09-29T17:12:49.049Z,148632.88
2022-09-29T17:17:52.792Z,148585.22
2022-09-29T17:22:59.224Z,148564.63
2022-09-29T17:28:14.993Z,148600.72
2022-09-29T17:33:20.645Z,148553.06
2022-09-29T17:38:27.234Z,148538.91
2022-09-29T17:43:33.996Z,148496.44
2022-09-29T17:48:40.344Z,148481.00
2022-09-29T17:53:49.908Z,148450.13
2022-09-29T17:58:55.549Z,148419.25
2022-09-29T18:04:09.257Z,148406.38
2022-09-29T18:09:17.433Z,148398.66
2022-09-29T18:14:35.525Z,148396.09
2022-09-29T18:19:41.476Z,148348.47
2022-09-29T18:24:54.854Z,148330.50
2022-09-29T18:30:02.331Z,148334.34
2022-09-29T18:41:00.448Z,148345.91
2022-09-29T18:46:09.385Z,148325.31
2022-09-29T18:51:13.762Z,148304.75
2022-09-29T18:56:19.052Z,148271.31
2022-09-29T19:01:25.457Z,148223.75
2022-09-29T19:06:28.941Z,148214.75
2022-09-29T19:11:33.824Z,148212.16
2022-09-29T19:16:37.233Z,148186.41
2022-09-29T19:21:42.589Z,148167.16
2022-09-29T19:26:47.283Z,148162.00
2022-09-29T19:31:50.749Z,148160.72
2022-09-29T19:36:54.833Z,148133.75
2022-09-29T19:41:59.850Z,148119.56
2022-09-29T19:47:03.496Z,148114.47
2022-09-29T19:52:07.676Z,148104.16
2022-09-29T19:57:16.160Z,148122.13
2022-09-29T20:02:19.737Z,148102.91
2022-09-29T20:07:25.135Z,148117.00
2022-09-29T20:12:32.424Z,148113.19
2022-09-29T20:17:57.199Z,148079.78
2022-09-29T20:23:05.662Z,148046.31
2022-09-29T20:28:15.906Z,148037.38
2022-09-29T20:33:39.087Z,148003.91
2022-09-29T20:38:50.553Z,147973.13
2022-09-29T20:43:59.434Z,147983.41
2022-09-29T20:49:05.940Z,147988.53
2022-09-29T20:54:12.520Z,148002.63
2022-09-29T20:59:20.230Z,148068.16
2022-09-29T21:04:23.773Z,148079.78
2022-09-29T21:09:27.555Z,148097.72
2022-09-29T21:14:32.363Z,148102.91
2022-09-29T21:19:38.161Z,148104.16
2022-09-29T21:24:41.643Z,148124.75
2022-09-29T21:29:46.928Z,148123.47
2022-09-29T21:34:52.485Z,148063.03
2022-09-29T21:40:02.132Z,148021.91
2022-09-29T21:45:10.291Z,148021.91
2022-09-29T21:50:14.101Z,147996.25
2022-09-29T21:55:17.507Z,147992.34
2022-09-29T22:00:22.545Z,147980.78
2022-09-29T22:05:32.764Z,147935.84
2022-09-29T22:10:36.337Z,147979.50
2022-09-29T22:15:41.176Z,147961.56
2022-09-29T22:20:44.973Z,147953.84
2022-09-29T22:25:48.386Z,147944.84
2022-09-29T22:30:53.203Z,147917.84
2022-09-29T22:35:58.213Z,147911.44
2022-09-29T22:41:01.530Z,147901.19
2022-09-29T22:46:06.777Z,147892.19
2022-09-29T22:51:10.154Z,147910.19
2022-09-29T22:56:17.190Z,147932.00
2022-09-29T23:01:22.387Z,147910.19
2022-09-29T23:06:26.102Z,147887.06
2022-09-29T23:11:30.377Z,147876.78
2022-09-29T23:16:35.188Z,147881.91
2022-09-29T23:21:38.574Z,147879.34
2022-09-29T23:26:42.009Z,147880.63
2022-09-29T23:31:49.582Z,147844.69
2022-09-29T23:36:53.184Z,147809.97
2022-09-29T23:41:56.501Z,147824.13
2022-09-29T23:47:01.191Z,147835.69
2022-09-29T23:52:05.617Z,147845.97
2022-09-29T23:57:08.914Z,147852.34
